Time;durP1;ratioP1;P1;durP2;ratioP2;P2;SDS_P1;SDS_P2;PMS_P1;PMS_P2;Temp;Humidity;BMP_temperature;BMP_pressure;BME280_temperature;BME280_humidity;BME280_pressure;Samples;Min_cycle;Max_cycle;Signal;HPM_P1;HPM_P2
2022/04/05 00:00:13;;;;;;;26.23;14.73;;;2.20;99.90;;;;;;5033113;28;20132;-66
2022/04/05 00:02:39;;;;;;;25.42;13.10;;;2.10;99.90;;;;;;5033001;28;20043;-66
2022/04/05 00:05:05;;;;;;;22.55;12.35;;;2.10;99.90;;;;;;5033090;28;20044;-65
2022/04/05 00:07:31;;;;;;;21.00;11.48;;;2.10;99.90;;;;;;5033009;28;20521;-66
2022/04/05 00:09:57;;;;;;;18.90;10.63;;;2.20;99.90;;;;;;5033117;28;20037;-66
2022/04/05 00:12:23;;;;;;;14.85;10.15;;;2.20;99.90;;;;;;5032926;28;20205;-65
2022/04/05 00:14:50;;;;;;;13.15;9.07;;;2.30;99.90;;;;;;5032931;28;20056;-65
2022/04/05 00:17:16;;;;;;;14.13;9.30;;;2.40;99.90;;;;;;5034732;28;20038;-66
2022/04/05 00:19:42;;;;;;;15.48;10.48;;;2.60;99.90;;;;;;5036994;28;20117;-66
2022/04/05 00:22:08;;;;;;;16.00;9.32;;;2.70;99.90;;;;;;5036910;28;20124;-65
2022/04/05 00:24:34;;;;;;;14.23;9.75;;;2.70;99.90;;;;;;5036975;28;20809;-65
2022/04/05 00:26:59;;;;;;;11.57;9.13;;;2.50;99.90;;;;;;5036604;28;20573;-65
2022/04/05 00:29:25;;;;;;;14.38;9.90;;;2.40;99.90;;;;;;5036617;28;20049;-65
2022/04/05 00:31:51;;;;;;;14.23;9.77;;;2.30;99.90;;;;;;5036462;28;20045;-66
2022/04/05 00:34:18;;;;;;;12.30;8.32;;;2.40;99.90;;;;;;5036646;28;20053;-65
2022/04/05 00:36:44;;;;;;;11.60;8.43;;;2.60;99.90;;;;;;5036626;28;20113;-66
2022/04/05 00:39:10;;;;;;;13.88;9.80;;;2.50;99.90;;;;;;5036527;28;20045;-66
2022/04/05 00:41:36;;;;;;;15.50;9.93;;;2.70;99.90;;;;;;5036199;28;20050;-65
2022/04/05 00:44:02;;;;;;;13.95;9.65;;;2.80;99.90;;;;;;5036462;28;20076;-66
2022/04/05 00:46:28;;;;;;;12.77;9.63;;;2.60;99.90;;;;;;5036549;28;20053;-65
2022/04/05 00:48:57;;;;;;;16.05;10.15;;;2.60;99.90;;;;;;5044863;28;20116;-66
2022/04/05 00:51:24;;;;;;;16.63;10.32;;;2.60;99.90;;;;;;5056287;28;20032;-66
2022/04/05 00:54:04;;;;;;;14.02;10.10;;;2.60;99.90;;;;;;5056019;28;20049;-66
2022/04/05 00:56:35;;;;;;;14.27;9.25;;;2.60;99.90;;;;;;5056160;28;20041;-66
2022/04/05 00:59:01;;;;;;;13.98;9.68;;;2.70;99.90;;;;;;5056073;28;20047;-65
2022/04/05 01:01:28;;;;;;;13.40;9.52;;;2.90;99.90;;;;;;5056134;28;20036;-65
2022/04/05 01:03:54;;;;;;;14.38;8.57;;;2.90;99.90;;;;;;5056015;28;20550;-65
2022/04/05 01:06:31;;;;;;;13.45;9.18;;;2.90;99.90;;;;;;5055927;28;20040;-66
2022/04/05 01:08:57;;;;;;;14.00;9.57;;;3.00;99.90;;;;;;5056177;28;20437;-66
2022/04/05 01:11:24;;;;;;;13.43;9.27;;;3.10;99.90;;;;;;5056255;28;20399;-65
2022/04/05 01:13:50;;;;;;;13.02;8.70;;;3.10;99.90;;;;;;5055841;28;20094;-66
2022/04/05 01:16:19;;;;;;;12.13;9.05;;;3.10;99.90;;;;;;5055841;28;20049;-65
2022/04/05 01:18:45;;;;;;;15.90;9.95;;;3.10;99.90;;;;;;5055620;28;20516;-65
2022/04/05 01:21:11;;;;;;;13.70;10.00;;;3.30;99.90;;;;;;5055594;28;20083;-66
2022/04/05 01:23:37;;;;;;;13.57;9.50;;;3.40;99.90;;;;;;5042081;28;20065;-66
2022/04/05 01:26:03;;;;;;;12.63;9.55;;;3.40;99.90;;;;;;5034542;28;20559;-66
2022/04/05 01:28:28;;;;;;;19.80;10.82;;;3.30;99.90;;;;;;5033437;28;20029;-66
2022/04/05 01:30:54;;;;;;;16.45;10.35;;;3.00;99.90;;;;;;5035646;28;20432;-66
2022/04/05 01:33:20;;;;;;;13.20;9.77;;;3.00;99.90;;;;;;5035551;28;20045;-66
2022/04/05 01:35:46;;;;;;;12.40;9.00;;;3.00;99.90;;;;;;5035238;28;20053;-66
2022/04/05 01:38:13;;;;;;;12.63;9.00;;;3.10;99.90;;;;;;5035441;28;20639;-66
2022/04/05 01:40:39;;;;;;;15.13;9.75;;;3.20;99.90;;;;;;5035442;28;20056;-65
2022/04/05 01:43:05;;;;;;;18.52;9.57;;;3.10;99.90;;;;;;5035650;28;20397;-66
2022/04/05 01:45:31;;;;;;;12.90;9.25;;;3.10;99.90;;;;;;5035372;28;20580;-66
2022/04/05 01:47:57;;;;;;;13.88;9.20;;;3.30;99.90;;;;;;5035249;28;20045;-65
2022/04/05 01:50:23;;;;;;;12.88;9.20;;;3.30;99.90;;;;;;5035160;28;20070;-66
2022/04/05 01:52:49;;;;;;;13.30;9.63;;;3.40;99.90;;;;;;5035219;28;20053;-66
2022/04/05 01:55:15;;;;;;;13.90;10.13;;;3.40;99.90;;;;;;5034945;28;20119;-66
2022/04/05 01:57:41;;;;;;;14.00;9.73;;;3.50;99.90;;;;;;5034866;28;20046;-66
2022/04/05 02:00:14;;;;;;;15.48;9.70;;;3.50;99.90;;;;;;5034737;28;20095;-66
2022/04/05 02:02:41;;;;;;;12.68;9.57;;;3.50;99.90;;;;;;5034778;28;20493;-66
2022/04/05 02:05:08;;;;;;;13.23;9.43;;;3.40;99.90;;;;;;5034781;28;20072;-66
2022/04/05 02:07:34;;;;;;;13.93;8.82;;;3.30;99.90;;;;;;5034778;28;20534;-66
2022/04/05 02:10:00;;;;;;;13.70;9.07;;;3.30;99.90;;;;;;5035109;28;20080;-66
2022/04/05 02:12:25;;;;;;;12.57;9.30;;;3.20;99.90;;;;;;5034935;28;20505;-66
2022/04/05 02:14:51;;;;;;;14.82;10.45;;;3.20;99.90;;;;;;5034892;28;20436;-66
2022/04/05 02:17:17;;;;;;;13.15;9.82;;;3.30;99.90;;;;;;5034867;28;20493;-66
2022/04/05 02:19:43;;;;;;;15.07;9.85;;;3.40;99.90;;;;;;5034670;28;20046;-66
2022/04/05 02:22:09;;;;;;;13.77;9.30;;;3.50;99.90;;;;;;5034825;28;20033;-66
2022/04/05 02:24:35;;;;;;;14.05;9.15;;;3.60;99.90;;;;;;5034612;28;20068;-66
2022/04/05 02:27:02;;;;;;;13.85;9.75;;;3.60;99.90;;;;;;5034410;28;20493;-66
2022/04/05 02:29:27;;;;;;;13.13;10.10;;;3.60;99.90;;;;;;5034566;28;20037;-66
2022/04/05 02:31:53;;;;;;;19.77;13.60;;;3.70;99.90;;;;;;5034515;28;20071;-66
2022/04/05 02:34:19;;;;;;;14.88;11.10;;;3.70;99.90;;;;;;5034072;28;20111;-67
2022/04/05 02:36:45;;;;;;;16.35;11.65;;;3.70;99.90;;;;;;5034046;28;20120;-66
2022/04/05 02:39:12;;;;;;;15.85;11.05;;;3.70;99.90;;;;;;5033787;28;20033;-66
2022/04/05 02:41:37;;;;;;;16.70;10.55;;;3.60;99.90;;;;;;5034259;28;20073;-66
2022/04/05 02:44:03;;;;;;;13.20;10.05;;;3.50;99.90;;;;;;5034250;28;20065;-66
2022/04/05 02:46:29;;;;;;;14.02;9.57;;;3.50;99.90;;;;;;5034199;28;20041;-66
2022/04/05 02:48:55;;;;;;;12.40;9.35;;;3.40;99.90;;;;;;5034042;28;20052;-66
2022/04/05 02:51:23;;;;;;;13.35;9.30;;;3.40;99.90;;;;;;5033968;28;20116;-66
2022/04/05 02:53:48;;;;;;;12.27;8.63;;;3.40;99.90;;;;;;5033977;28;20048;-66
2022/04/05 02:56:15;;;;;;;14.30;9.27;;;3.50;99.90;;;;;;5034239;28;20037;-66
2022/04/05 02:58:41;;;;;;;13.00;9.38;;;3.40;99.90;;;;;;5033922;28;20041;-66
2022/04/05 03:01:07;;;;;;;12.18;9.10;;;3.20;99.90;;;;;;5033754;28;20041;-66
2022/04/05 03:03:34;;;;;;;11.55;9.15;;;2.90;99.90;;;;;;5034191;28;20045;-66
2022/04/05 03:06:00;;;;;;;15.38;10.05;;;2.90;99.90;;;;;;5033853;28;20048;-66
2022/04/05 03:08:26;;;;;;;12.02;9.45;;;3.10;99.90;;;;;;5033709;28;20091;-66
2022/04/05 03:10:53;;;;;;;13.73;9.43;;;3.20;99.90;;;;;;5033720;28;20045;-66
2022/04/05 03:13:19;;;;;;;14.00;10.18;;;3.30;99.90;;;;;;5033597;28;20485;-66
2022/04/05 03:15:45;;;;;;;13.43;9.70;;;3.40;99.90;;;;;;5033569;28;20080;-66
2022/04/05 03:18:11;;;;;;;14.05;10.05;;;3.50;99.90;;;;;;5033848;28;20037;-66
2022/04/05 03:20:37;;;;;;;13.63;10.07;;;3.50;99.90;;;;;;5033747;28;20037;-66
2022/04/05 03:23:04;;;;;;;13.50;10.32;;;3.50;99.90;;;;;;5033665;28;20033;-66
2022/04/05 03:25:30;;;;;;;16.52;10.60;;;3.50;99.90;;;;;;5033860;28;20033;-66
2022/04/05 03:28:01;;;;;;;15.68;11.07;;;3.60;99.90;;;;;;5032348;28;20072;-66
2022/04/05 03:30:27;;;;;;;14.73;10.25;;;3.60;99.90;;;;;;5033415;28;20041;-66
2022/04/05 03:32:53;;;;;;;14.68;10.52;;;3.60;99.90;;;;;;5033385;28;20258;-66
2022/04/05 03:35:19;;;;;;;15.98;10.65;;;3.60;99.90;;;;;;5033286;28;20095;-66
2022/04/05 03:37:45;;;;;;;15.82;10.65;;;3.40;99.90;;;;;;5033295;28;20124;-66
2022/04/05 03:40:12;;;;;;;15.02;10.73;;;3.40;99.90;;;;;;5033213;28;20049;-66
2022/04/05 03:42:38;;;;;;;14.75;10.60;;;3.30;99.90;;;;;;5033137;28;20029;-66
2022/04/05 03:45:04;;;;;;;17.98;11.80;;;3.40;99.90;;;;;;5033136;28;20130;-66
2022/04/05 03:47:31;;;;;;;16.45;11.65;;;3.50;99.90;;;;;;5033249;28;20041;-66
2022/04/05 03:49:57;;;;;;;18.50;10.85;;;3.50;99.90;;;;;;5050400;28;20041;-66
2022/04/05 03:52:23;;;;;;;16.48;11.82;;;3.50;99.90;;;;;;5052540;28;20129;-66
2022/04/05 03:54:48;;;;;;;14.75;10.73;;;3.40;99.90;;;;;;5052696;28;20465;-66
2022/04/05 03:57:14;;;;;;;12.98;9.73;;;3.50;99.90;;;;;;5052665;28;20033;-66
2022/04/05 03:59:40;;;;;;;17.23;10.15;;;3.40;99.90;;;;;;5052562;28;20120;-66
2022/04/05 04:02:06;;;;;;;14.98;11.13;;;3.30;99.90;;;;;;5052627;28;20029;-66
2022/04/05 04:04:32;;;;;;;14.82;11.07;;;3.30;99.90;;;;;;5052582;28;20086;-66
2022/04/05 04:06:58;;;;;;;19.20;11.25;;;3.30;99.90;;;;;;5052529;28;20048;-66
2022/04/05 04:09:23;;;;;;;14.10;10.65;;;3.40;99.90;;;;;;5052917;28;20075;-66
2022/04/05 04:11:49;;;;;;;12.80;9.75;;;3.40;99.90;;;;;;5052884;28;20049;-66
2022/04/05 04:14:16;;;;;;;14.77;10.60;;;3.40;99.90;;;;;;5052721;28;20453;-66
2022/04/05 04:16:41;;;;;;;13.43;9.25;;;3.40;99.90;;;;;;5053062;28;20041;-66
2022/04/05 04:19:07;;;;;;;11.68;9.50;;;3.40;99.90;;;;;;5052607;28;20401;-66
2022/04/05 04:21:33;;;;;;;14.30;10.00;;;3.30;99.90;;;;;;5052393;28;20040;-66
2022/04/05 04:23:59;;;;;;;14.85;10.48;;;3.30;99.90;;;;;;5052431;28;20128;-66
2022/04/05 04:26:25;;;;;;;15.77;9.00;;;3.30;99.90;;;;;;5052422;28;20053;-66
2022/04/05 04:28:53;;;;;;;14.70;9.50;;;3.40;99.90;;;;;;5052559;28;20041;-66
2022/04/05 04:31:18;;;;;;;13.73;9.43;;;3.50;99.90;;;;;;5052765;28;20132;-66
2022/04/05 04:33:44;;;;;;;16.20;9.98;;;3.50;99.90;;;;;;5052614;28;20404;-66
2022/04/05 04:36:11;;;;;;;14.57;9.65;;;3.60;99.90;;;;;;5052439;28;20041;-66
2022/04/05 04:38:37;;;;;;;13.70;9.65;;;3.60;99.90;;;;;;5052536;28;20578;-66
2022/04/05 04:41:02;;;;;;;14.30;10.35;;;3.60;99.90;;;;;;5052662;28;20041;-66
2022/04/05 04:43:28;;;;;;;11.75;8.75;;;3.60;99.90;;;;;;5052476;28;20500;-66
2022/04/05 04:45:54;;;;;;;15.57;10.82;;;3.70;99.90;;;;;;5052662;28;20045;-66
2022/04/05 04:48:21;;;;;;;20.13;10.48;;;3.60;99.90;;;;;;5052414;28;20044;-66
2022/04/05 04:50:48;;;;;;;16.52;10.55;;;3.70;99.90;;;;;;5052454;28;20515;-66
2022/04/05 04:53:14;;;;;;;14.07;9.63;;;3.70;99.90;;;;;;5052234;28;20127;-66
2022/04/05 04:55:39;;;;;;;15.85;10.20;;;3.80;99.90;;;;;;5052068;28;20131;-66
2022/04/05 04:58:05;;;;;;;13.00;9.57;;;3.80;99.90;;;;;;5046714;28;20040;-66
2022/04/05 05:00:31;;;;;;;12.68;9.48;;;3.90;99.90;;;;;;5039799;28;20569;-67
2022/04/05 05:02:57;;;;;;;13.25;8.90;;;3.80;99.90;;;;;;5048969;28;20043;-66
2022/04/05 05:05:23;;;;;;;14.80;9.52;;;3.50;99.90;;;;;;5056031;28;20041;-66
2022/04/05 05:07:52;;;;;;;12.57;9.10;;;3.40;99.90;;;;;;5056010;28;20037;-66
2022/04/05 05:10:19;;;;;;;13.18;9.77;;;3.50;99.90;;;;;;5056064;28;20471;-66
2022/04/05 05:12:46;;;;;;;13.95;9.40;;;3.60;99.90;;;;;;5055901;28;20135;-66
2022/04/05 05:15:15;;;;;;;12.77;9.38;;;3.70;99.90;;;;;;5055639;28;20091;-66
2022/04/05 05:17:42;;;;;;;12.02;8.82;;;3.70;99.90;;;;;;5055786;28;20060;-66
2022/04/05 05:20:09;;;;;;;14.35;9.85;;;3.70;99.90;;;;;;5055784;28;20357;-66
2022/04/05 05:22:36;;;;;;;14.77;9.23;;;3.70;99.90;;;;;;5053775;28;20040;-66
2022/04/05 05:25:03;;;;;;;13.15;9.50;;;3.70;99.90;;;;;;5041988;28;20374;-67
2022/04/05 05:27:29;;;;;;;14.43;10.10;;;3.50;99.90;;;;;;5032023;28;20045;-66
2022/04/05 05:29:55;;;;;;;13.07;9.88;;;3.50;99.90;;;;;;5033850;28;20126;-66
2022/04/05 05:32:21;;;;;;;16.02;9.68;;;3.50;99.90;;;;;;5033617;28;20104;-66
2022/04/05 05:34:47;;;;;;;15.10;8.68;;;3.50;99.90;;;;;;5035079;28;20053;-66
2022/04/05 05:37:13;;;;;;;12.73;9.82;;;3.70;99.90;;;;;;5034152;28;20029;-66
2022/04/05 05:39:39;;;;;;;13.23;9.60;;;3.60;99.90;;;;;;5034976;28;20425;-67
2022/04/05 05:42:06;;;;;;;12.90;9.00;;;3.60;99.90;;;;;;5035102;28;20053;-66
2022/04/05 05:44:32;;;;;;;15.15;9.80;;;3.60;99.90;;;;;;5035352;28;20050;-66
2022/04/05 05:46:58;;;;;;;16.08;10.57;;;3.60;99.90;;;;;;5035220;28;20065;-67
2022/04/05 05:49:24;;;;;;;14.07;9.88;;;3.70;99.90;;;;;;5033090;28;20053;-66
2022/04/05 05:51:50;;;;;;;13.35;9.75;;;3.70;99.90;;;;;;5051912;28;20045;-66
2022/04/05 05:54:16;;;;;;;12.77;9.25;;;3.70;99.90;;;;;;5050628;28;20045;-66
2022/04/05 05:56:42;;;;;;;16.70;9.73;;;3.80;99.90;;;;;;5031857;28;20069;-66
2022/04/05 05:59:08;;;;;;;15.82;9.63;;;3.90;99.90;;;;;;5031470;28;20080;-66
2022/04/05 06:01:34;;;;;;;16.00;9.48;;;3.90;99.90;;;;;;5031446;28;20045;-65
2022/04/05 06:04:00;;;;;;;16.23;10.00;;;4.00;99.90;;;;;;5030542;28;20078;-66
2022/04/05 06:06:28;;;;;;;12.15;8.95;;;4.10;99.90;;;;;;5031516;28;20065;-66
2022/04/05 06:08:55;;;;;;;28.58;16.58;;;4.20;99.90;;;;;;5029967;28;20524;-66
2022/04/05 06:11:21;;;;;;;43.47;24.13;;;4.20;99.90;;;;;;5032073;28;20049;-67
2022/04/05 06:13:48;;;;;;;22.80;14.65;;;4.20;99.90;;;;;;5037382;28;20033;-66
2022/04/05 06:16:15;;;;;;;15.10;10.10;;;4.20;99.90;;;;;;5031746;28;20136;-67
2022/04/05 06:18:44;;;;;;;50.75;28.50;;;4.20;99.90;;;;;;5032775;28;20120;-67
2022/04/05 06:21:09;;;;;;;20.42;14.05;;;4.10;99.90;;;;;;5034217;28;20045;-66
2022/04/05 06:23:35;;;;;;;31.27;19.88;;;4.10;99.90;;;;;;5034297;28;20499;-66
2022/04/05 06:26:01;;;;;;;20.90;15.20;;;4.10;99.90;;;;;;5031916;28;20075;-67
2022/04/05 06:28:27;;;;;;;18.55;12.40;;;4.20;99.90;;;;;;5032261;28;20519;-66
2022/04/05 06:30:52;;;;;;;17.48;12.57;;;4.20;99.90;;;;;;5032730;28;20041;-66
2022/04/05 06:33:21;;;;;;;23.60;15.98;;;4.20;99.90;;;;;;5032513;28;20056;-66
2022/04/05 06:35:50;;;;;;;44.60;26.95;;;4.30;99.90;;;;;;5032362;28;20049;-67
2022/04/05 06:38:16;;;;;;;31.83;19.48;;;4.40;99.90;;;;;;5032153;28;20385;-67
2022/04/05 06:40:43;;;;;;;15.80;10.93;;;4.50;99.90;;;;;;5031604;28;20026;-66
2022/04/05 06:43:10;;;;;;;22.10;15.13;;;4.50;99.90;;;;;;5032154;28;20440;-66
2022/04/05 06:45:36;;;;;;;20.50;14.45;;;4.60;99.90;;;;;;5032672;28;20477;-66
2022/04/05 06:48:02;;;;;;;34.08;21.63;;;4.60;99.90;;;;;;5033572;28;20045;-66
2022/04/05 06:50:28;;;;;;;46.63;28.10;;;4.80;99.90;;;;;;5033686;28;20076;-66
2022/04/05 06:52:57;;;;;;;47.08;27.10;;;4.80;99.90;;;;;;5033807;28;20037;-66
2022/04/05 06:55:23;;;;;;;35.53;21.20;;;4.80;99.90;;;;;;5033791;28;20500;-66
2022/04/05 06:57:50;;;;;;;23.83;13.95;;;4.90;99.90;;;;;;5033853;28;20045;-66
2022/04/05 07:00:22;;;;;;;18.65;11.52;;;5.70;99.90;;;;;;5033974;28;20574;-66
2022/04/05 07:02:48;;;;;;;12.18;8.68;;;5.40;99.90;;;;;;5033819;28;20040;-66
2022/04/05 07:05:14;;;;;;;12.73;9.20;;;5.30;99.90;;;;;;5033908;28;20057;-66
2022/04/05 07:07:41;;;;;;;18.00;11.80;;;5.20;99.90;;;;;;5033923;28;20049;-67
2022/04/05 07:10:09;;;;;;;15.93;10.77;;;5.20;99.90;;;;;;5033826;28;20044;-66
2022/04/05 07:12:35;;;;;;;15.80;10.80;;;5.20;99.90;;;;;;5016267;28;20383;-66
2022/04/05 07:15:01;;;;;;;19.50;11.07;;;5.30;99.90;;;;;;5011083;28;20049;-66
2022/04/05 07:17:27;;;;;;;17.55;9.82;;;5.40;99.90;;;;;;5011527;28;20030;-66
2022/04/05 07:19:53;;;;;;;15.18;8.82;;;5.40;99.90;;;;;;5011928;28;20049;-66
2022/04/05 07:22:19;;;;;;;12.32;8.70;;;5.50;99.90;;;;;;5011392;28;20117;-66
2022/04/05 07:24:48;;;;;;;18.63;9.65;;;5.50;99.90;;;;;;5011394;28;20783;-66
2022/04/05 07:27:14;;;;;;;15.07;9.07;;;5.60;99.90;;;;;;5010031;28;20120;-67
2022/04/05 07:29:40;;;;;;;14.02;8.32;;;5.60;99.90;;;;;;5010168;28;20128;-67
2022/04/05 07:32:06;;;;;;;14.30;9.15;;;5.60;99.90;;;;;;5011265;28;20037;-67
2022/04/05 07:34:32;;;;;;;14.77;9.45;;;5.70;99.90;;;;;;5011951;28;20054;-67
2022/04/05 07:36:58;;;;;;;15.52;9.35;;;5.80;99.90;;;;;;5012656;28;20037;-67
2022/04/05 07:39:25;;;;;;;17.63;10.07;;;5.80;99.90;;;;;;5012655;28;20104;-67
2022/04/05 07:41:51;;;;;;;16.40;10.32;;;5.90;99.90;;;;;;5011381;28;20124;-66
2022/04/05 07:44:17;;;;;;;15.65;9.88;;;5.90;99.90;;;;;;5006989;28;20042;-67
2022/04/05 07:46:43;;;;;;;14.95;9.10;;;5.90;99.90;;;;;;5009142;28;20038;-66
2022/04/05 07:49:09;;;;;;;13.90;9.48;;;6.00;99.90;;;;;;5021892;28;20045;-66
2022/04/05 07:51:35;;;;;;;13.55;9.10;;;6.20;99.90;;;;;;5034871;28;20041;-66
2022/04/05 07:54:01;;;;;;;13.95;9.60;;;;;;;;;;5032412;28;20067;-66
2022/04/05 07:56:27;;;;;;;16.50;10.50;;;6.30;99.90;;;;;;5036823;28;20044;-66
2022/04/05 07:58:53;;;;;;;17.83;11.43;;;6.40;99.90;;;;;;5052494;28;20037;-67
2022/04/05 08:01:19;;;;;;;15.23;9.55;;;6.50;99.90;;;;;;5050693;28;20393;-66
2022/04/05 08:03:45;;;;;;;13.63;9.40;;;6.60;99.90;;;;;;5051055;28;20036;-67
2022/04/05 08:06:11;;;;;;;17.08;10.10;;;6.70;99.90;;;;;;5051416;28;20048;-67
2022/04/05 08:08:36;;;;;;;13.60;9.40;;;6.70;99.90;;;;;;5050724;28;20048;-65
2022/04/05 08:11:02;;;;;;;13.23;9.23;;;7.10;99.90;;;;;;5050316;28;20033;-66
2022/04/05 08:13:28;;;;;;;13.63;9.00;;;7.30;99.90;;;;;;5050653;28;20040;-66
2022/04/05 08:15:55;;;;;;;13.98;8.63;;;7.50;99.90;;;;;;5050966;28;20083;-65
2022/04/05 08:18:21;;;;;;;11.90;8.60;;;7.70;99.90;;;;;;5050640;28;20040;-64
2022/04/05 08:20:47;;;;;;;12.02;8.52;;;7.80;99.90;;;;;;5050683;28;20107;-66
2022/04/05 08:23:13;;;;;;;13.93;8.60;;;8.20;99.90;;;;;;5050496;28;20040;-66
2022/04/05 08:25:39;;;;;;;11.25;7.47;;;8.40;99.90;;;;;;5050492;28;20046;-66
2022/04/05 08:28:06;;;;;;;12.48;7.63;;;8.70;99.90;;;;;;5050389;28;20037;-66
2022/04/05 08:30:31;;;;;;;13.35;8.55;;;8.50;99.90;;;;;;5050422;28;20052;-65
2022/04/05 08:32:58;;;;;;;15.65;8.50;;;8.80;99.90;;;;;;5050863;28;20482;-65
2022/04/05 08:35:24;;;;;;;11.50;7.43;;;8.80;99.90;;;;;;5050330;28;20428;-65
2022/04/05 08:37:52;;;;;;;12.40;6.97;;;8.90;99.90;;;;;;5051046;28;20029;-66
2022/04/05 08:40:21;;;;;;;10.93;7.05;;;9.20;99.90;;;;;;5054373;28;20389;-65
2022/04/05 08:42:49;;;;;;;13.52;6.88;;;9.50;99.90;;;;;;5054465;28;20086;-66
2022/04/05 08:45:17;;;;;;;10.35;5.90;;;9.00;99.90;;;;;;5055118;28;20122;-66
2022/04/05 08:47:49;;;;;;;15.70;5.90;;;8.80;99.90;;;;;;5045975;28;20039;-65
2022/04/05 08:50:17;;;;;;;9.40;6.30;;;9.10;99.90;;;;;;5031215;28;20041;-65
2022/04/05 08:52:44;;;;;;;13.25;6.38;;;9.20;99.90;;;;;;5028154;28;20452;-66
2022/04/05 08:55:11;;;;;;;11.73;6.13;;;9.00;99.90;;;;;;5014633;28;20053;-66
2022/04/05 08:57:37;;;;;;;10.57;5.85;;;8.70;99.90;;;;;;5014214;28;20559;-66
2022/04/05 09:00:08;;;;;;;10.48;5.38;;;9.20;99.90;;;;;;5013455;28;20045;-65
2022/04/05 09:02:34;;;;;;;9.93;6.20;;;9.30;99.90;;;;;;5015304;28;20050;-66
2022/04/05 09:05:01;;;;;;;10.85;5.15;;;9.40;99.90;;;;;;5013630;28;20052;-66
2022/04/05 09:07:35;;;;;;;6.70;4.55;;;9.50;99.90;;;;;;5015531;28;20046;-67
2022/04/05 09:10:14;;;;;;;7.03;4.40;;;9.30;99.90;;;;;;5015845;28;20084;-65
2022/04/05 09:12:48;;;;;;;10.40;5.85;;;9.30;99.90;;;;;;5014567;28;20040;-66
2022/04/05 09:15:17;;;;;;;7.15;4.97;;;9.10;99.90;;;;;;5013624;28;20096;-66
2022/04/05 09:17:45;;;;;;;8.45;4.85;;;9.00;99.90;;;;;;5013773;28;20046;-66
2022/04/05 09:20:12;;;;;;;7.57;4.75;;;8.90;99.90;;;;;;5015506;28;20042;-66
2022/04/05 09:22:39;;;;;;;8.82;4.93;;;9.00;99.90;;;;;;5015770;28;20137;-66
2022/04/05 09:25:07;;;;;;;9.30;4.88;;;9.40;99.90;;;;;;5014447;28;20038;-66
2022/04/05 09:27:43;;;;;;;6.90;4.68;;;;;;;;;;5014015;28;20120;-65
2022/04/05 09:30:22;;;;;;;8.82;4.63;;;10.00;99.90;;;;;;5011868;28;20066;-66
2022/04/05 09:32:48;;;;;;;6.00;4.30;;;10.00;99.90;;;;;;5012936;28;20049;-66
2022/04/05 09:35:20;;;;;;;7.35;4.05;;;10.00;99.90;;;;;;5012998;28;20631;-66
2022/04/05 09:37:47;;;;;;;8.07;4.57;;;9.70;99.90;;;;;;5013407;28;20069;-66
2022/04/05 09:40:32;;;;;;;7.20;4.55;;;9.70;99.90;;;;;;5014055;28;20131;-66
2022/04/05 09:43:07;;;;;;;7.40;4.70;;;9.20;99.90;;;;;;5015411;28;20566;-66
2022/04/05 09:45:50;;;;;;;8.55;4.30;;;9.10;99.90;;;;;;5014892;28;20494;-65
2022/04/05 09:48:21;;;;;;;8.95;5.15;;;9.00;99.90;;;;;;5034386;28;20036;-66
2022/04/05 09:51:07;;;;;;;;;;;8.70;99.90;;;;;;5052687;28;20067;-66
2022/04/05 09:53:39;;;;;;;8.57;4.45;;;8.60;99.90;;;;;;5053121;28;19943;-65
2022/04/05 09:56:14;;;;;;;10.50;5.10;;;8.60;99.90;;;;;;5052452;28;20106;-66
2022/04/05 09:58:48;;;;;;;8.00;4.65;;;8.60;99.90;;;;;;5052720;28;20029;-66
2022/04/05 10:01:15;;;;;;;8.45;4.65;;;8.80;99.90;;;;;;5052506;28;20070;-66
2022/04/05 10:03:43;;;;;;;6.63;4.20;;;8.80;99.90;;;;;;5052970;28;20083;-65
2022/04/05 10:06:09;;;;;;;8.10;5.07;;;8.70;99.90;;;;;;5053936;28;20075;-66
2022/04/05 10:08:37;;;;;;;9.57;5.07;;;9.10;99.90;;;;;;5054189;28;20082;-65
2022/04/05 10:11:04;;;;;;;7.72;4.82;;;8.80;99.90;;;;;;5052225;28;20029;-65
2022/04/05 10:13:30;;;;;;;10.70;5.68;;;8.80;99.90;;;;;;5053145;28;20040;-66
2022/04/05 10:15:57;;;;;;;13.25;5.65;;;8.80;99.90;;;;;;5053161;28;20053;-65
2022/04/05 10:18:26;;;;;;;8.55;5.18;;;8.90;99.90;;;;;;5052592;28;20037;-66
2022/04/05 10:20:53;;;;;;;7.68;5.25;;;9.00;99.90;;;;;;5052622;28;20072;-65
2022/04/05 10:23:22;;;;;;;8.90;4.55;;;8.90;99.90;;;;;;5052606;28;20107;-66
2022/04/05 10:25:52;;;;;;;9.35;4.45;;;9.00;99.90;;;;;;5052796;28;20475;-66
2022/04/05 10:28:22;;;;;;;6.30;4.85;;;9.10;99.90;;;;;;5052322;28;20447;-66
2022/04/05 10:31:03;;;;;;;13.57;4.85;;;9.70;99.90;;;;;;5053254;28;20049;-66
2022/04/05 10:33:52;;;;;;;8.30;5.55;;;9.60;99.90;;;;;;5053873;28;20366;-65
2022/04/05 10:36:24;;;;;;;7.55;4.10;;;9.40;99.90;;;;;;5051904;28;20060;-65
2022/04/05 10:39:16;;;;;;;6.53;4.32;;;9.70;99.90;;;;;;5052291;28;20040;-66
2022/04/05 10:42:02;;;;;;;8.07;4.60;;;9.40;99.90;;;;;;5052328;28;20039;-66
2022/04/05 10:44:28;;;;;;;5.40;4.07;;;9.40;99.90;;;;;;5052095;28;20048;-65
2022/04/05 10:47:01;;;;;;;6.47;3.85;;;9.90;99.90;;;;;;5052180;28;20041;-66
2022/04/05 10:49:49;;;;;;;5.53;3.50;;;9.80;99.90;;;;;;5051979;28;20119;-65
2022/04/05 10:52:17;;;;;;;6.30;4.38;;;10.00;99.90;;;;;;5051412;28;20424;-66
2022/04/05 10:54:46;;;;;;;47.47;30.75;;;10.40;99.90;;;;;;5051600;28;20480;-66
2022/04/05 10:57:37;;;;;;;11.90;7.30;;;10.60;99.90;;;;;;5051573;28;20067;-66
2022/04/05 11:00:05;;;;;;;;;;;10.50;99.90;;;;;;5051695;28;20119;-66
2022/04/05 11:02:45;;;;;;;31.13;17.77;;;9.90;99.90;;;;;;5051646;28;19916;-66
2022/04/05 11:05:14;;;;;;;57.35;24.67;;;10.30;99.90;;;;;;5051627;28;20037;-66
2022/04/05 11:07:52;;;;;;;14.07;9.77;;;10.70;99.90;;;;;;5051700;28;20095;-66
2022/04/05 11:10:25;;;;;;;14.23;6.68;;;10.50;99.90;;;;;;5051526;28;20151;-66
2022/04/05 11:13:02;;;;;;;7.97;4.28;;;10.50;99.90;;;;;;5051529;28;20040;-66
2022/04/05 11:15:39;;;;;;;5.78;3.70;;;;;;;;;;5051442;28;20135;-67
2022/04/05 11:18:06;;;;;;;10.50;5.45;;;10.70;99.90;;;;;;5052440;28;20036;-66
2022/04/05 11:20:32;;;;;;;5.82;4.50;;;10.60;99.90;;;;;;5051511;28;20094;-66
2022/04/05 11:23:01;;;;;;;12.85;8.05;;;10.50;99.90;;;;;;5051737;28;20037;-66
2022/04/05 11:25:29;;;;;;;12.75;7.25;;;11.10;99.90;;;;;;5051486;28;20512;-66
2022/04/05 11:27:55;;;;;;;11.20;4.82;;;11.20;99.90;;;;;;5051595;28;20120;-66
2022/04/05 11:30:26;;;;;;;5.70;3.38;;;11.30;99.90;;;;;;5052038;28;20128;-67
2022/04/05 11:33:12;;;;;;;6.68;4.32;;;10.90;99.90;;;;;;5051315;28;20111;-67
2022/04/05 11:35:40;;;;;;;5.32;3.10;;;11.00;99.90;;;;;;5052733;28;20131;-67
2022/04/05 11:38:17;;;;;;;6.45;3.97;;;11.90;99.90;;;;;;5051001;28;20377;-66
2022/04/05 11:40:45;;;;;;;7.38;4.22;;;11.90;99.90;;;;;;5051303;28;20072;-66
2022/04/05 11:43:27;;;;;;;10.88;6.57;;;12.20;99.90;;;;;;5052606;28;20048;-66
2022/04/05 11:45:54;;;;;;;8.10;4.80;;;12.20;99.90;;;;;;5052055;28;20121;-66
2022/04/05 11:48:22;;;;;;;4.90;2.20;;;12.20;99.90;;;;;;5050761;28;20041;-66
2022/04/05 11:50:50;;;;;;;7.05;3.20;;;11.50;99.90;;;;;;5052863;28;20049;-67
2022/04/05 11:53:24;;;;;;;3.55;2.22;;;11.50;99.90;;;;;;5049449;28;20033;-66
2022/04/05 11:56:24;;;;;;;5.45;2.40;;;11.40;99.90;;;;;;5050520;28;20057;-66
2022/04/05 11:58:58;;;;;;;3.40;2.20;;;11.20;99.90;;;;;;4986303;28;20049;-65
2022/04/05 12:01:33;;;;;;;4.13;2.42;;;11.00;99.90;;;;;;5030880;28;20095;-66
2022/04/05 12:04:10;;;;;;;3.95;2.58;;;11.20;99.90;;;;;;5030492;28;20056;-67
2022/04/05 12:06:39;;;;;;;4.80;2.53;;;11.00;99.90;;;;;;5030757;28;20397;-67
2022/04/05 12:09:10;;;;;;;2.63;2.05;;;10.70;99.90;;;;;;5032198;28;20473;-66
2022/04/05 12:11:38;;;;;;;2.97;2.00;;;10.70;99.90;;;;;;5032631;28;20053;-65
2022/04/05 12:14:05;;;;;;;7.05;2.60;;;10.80;99.90;;;;;;5038716;28;20087;-66
2022/04/05 12:16:58;;;;;;;5.10;2.47;;;10.90;99.90;;;;;;5038133;28;20068;-66
2022/04/05 12:19:30;;;;;;;3.83;2.35;;;10.80;99.90;;;;;;5037540;28;20038;-66
2022/04/05 12:21:57;;;;;;;4.50;2.78;;;10.80;99.90;;;;;;5037783;28;20427;-67
2022/04/05 12:24:24;;;;;;;3.67;2.53;;;11.10;99.90;;;;;;5037238;28;20041;-66
2022/04/05 12:26:51;;;;;;;8.50;3.22;;;11.50;99.90;;;;;;5036645;28;20075;-66
2022/04/05 12:29:17;;;;;;;6.65;2.63;;;11.30;99.90;;;;;;5038293;28;20045;-66
2022/04/05 12:31:43;;;;;;;4.03;2.60;;;11.20;99.90;;;;;;5037530;28;20034;-66
2022/04/05 12:34:13;;;;;;;5.13;2.05;;;11.20;99.90;;;;;;5036382;28;20045;-66
2022/04/05 12:36:42;;;;;;;4.23;2.63;;;11.50;99.90;;;;;;5039492;28;20039;-65
2022/04/05 12:39:22;;;;;;;6.72;2.72;;;11.40;99.90;;;;;;5032443;28;20264;-66
2022/04/05 12:41:56;;;;;;;5.30;2.53;;;11.20;99.90;;;;;;5037104;28;20437;-66
2022/04/05 12:44:26;;;;;;;4.18;2.35;;;11.70;99.90;;;;;;5038895;28;20045;-66
2022/04/05 12:46:58;;;;;;;4.35;2.20;;;11.80;99.90;;;;;;5037202;28;20038;-66
2022/04/05 12:49:31;;;;;;;2.70;2.30;;;12.10;99.90;;;;;;5036198;28;20075;-65